createdAt,value
2019-03-15T00:01:10.579Z,1.50
2019-03-15T00:06:15.077Z,1.33
2019-03-15T00:11:19.370Z,1.13
2019-03-15T00:16:23.870Z,1.40
2019-03-15T00:21:28.127Z,1.37
2019-03-15T00:26:32.338Z,1.50
2019-03-15T00:31:37.589Z,1.60
2019-03-15T00:36:42.956Z,1.70
2019-03-15T00:41:47.173Z,1.17
2019-03-15T00:46:51.431Z,1.10
2019-03-15T00:51:55.669Z,1.32
2019-03-15T00:57:00.190Z,1.20
2019-03-15T01:02:04.511Z,1.37
2019-03-15T01:07:08.745Z,1.40
2019-03-15T01:12:12.982Z,1.30
2019-03-15T01:17:17.507Z,1.20
2019-03-15T01:22:21.772Z,0.90
2019-03-15T01:27:26.274Z,1.27
2019-03-15T01:32:32.450Z,1.23
2019-03-15T01:37:36.951Z,1.30
2019-03-15T01:42:41.484Z,1.23
2019-03-15T01:47:45.706Z,1.27
2019-03-15T01:52:49.943Z,1.30
2019-03-15T01:57:54.162Z,1.20
2019-03-15T02:02:58.422Z,1.27
2019-03-15T02:08:02.930Z,1.10
2019-03-15T02:13:07.226Z,1.30
2019-03-15T02:18:11.761Z,1.73
2019-03-15T02:23:16.117Z,1.53
2019-03-15T02:28:21.425Z,1.30
2019-03-15T02:33:25.964Z,1.20
2019-03-15T02:38:30.199Z,1.30
2019-03-15T02:43:34.508Z,1.30
2019-03-15T02:48:40.655Z,1.17
2019-03-15T02:53:44.996Z,1.43
2019-03-15T02:58:49.236Z,1.80
2019-03-15T03:03:54.910Z,1.40
2019-03-15T03:08:59.195Z,1.70
2019-03-15T03:14:04.273Z,1.40
2019-03-15T03:19:08.766Z,1.43
2019-03-15T03:24:13.136Z,2.08
2019-03-15T03:29:17.366Z,1.83
2019-03-15T03:34:21.806Z,1.40
2019-03-15T03:39:26.386Z,1.40
2019-03-15T03:44:30.683Z,1.60
2019-03-15T03:49:34.945Z,1.27
2019-03-15T03:54:39.564Z,1.97
2019-03-15T03:59:43.795Z,1.32
2019-03-15T04:04:49.230Z,1.87
2019-03-15T04:09:53.460Z,1.42
2019-03-15T04:14:57.967Z,1.17
2019-03-15T04:20:02.505Z,1.60
2019-03-15T04:25:07.312Z,1.40
2019-03-15T04:30:12.042Z,1.30
2019-03-15T04:35:16.403Z,2.03
2019-03-15T04:40:20.623Z,1.73
2019-03-15T04:45:25.133Z,1.87
2019-03-15T04:50:29.918Z,2.50
2019-03-15T04:55:34.271Z,2.43
2019-03-15T05:00:38.511Z,2.65
2019-03-15T05:05:42.771Z,2.83
2019-03-15T05:10:48.475Z,1.80
2019-03-15T05:15:52.742Z,2.70
2019-03-15T05:20:57.004Z,2.33
2019-03-15T05:26:02.369Z,2.33
2019-03-15T05:31:06.626Z,2.13
2019-03-15T05:36:10.996Z,3.20
2019-03-15T05:41:16.219Z,2.40
2019-03-15T05:46:20.803Z,2.37
2019-03-15T05:51:25.046Z,2.20
2019-03-15T05:56:30.198Z,2.20
2019-03-15T06:01:34.494Z,3.27
2019-03-15T06:06:38.771Z,2.73
2019-03-15T06:11:44.150Z,3.40
2019-03-15T06:16:49.191Z,1.83
2019-03-15T06:21:53.564Z,2.70
2019-03-15T06:26:58.003Z,2.47
2019-03-15T06:32:02.296Z,2.27
2019-03-15T06:37:06.586Z,1.90
2019-03-15T06:42:10.835Z,2.37
2019-03-15T06:47:15.919Z,2.43
2019-03-15T06:52:20.163Z,2.53
2019-03-15T06:57:25.197Z,2.20
2019-03-15T07:02:30.718Z,2.27
2019-03-15T07:07:34.984Z,3.15
2019-03-15T07:12:40.439Z,1.83
2019-03-15T07:17:45.103Z,3.55
2019-03-15T07:22:49.447Z,2.50
2019-03-15T07:27:55.283Z,2.90
2019-03-15T07:32:59.553Z,1.67
2019-03-15T07:38:05.370Z,2.27
2019-03-15T07:43:09.627Z,2.70
2019-03-15T07:48:22.327Z,1.63
2019-03-15T07:53:21.516Z,2.80
2019-03-15T07:58:27.145Z,2.50
2019-03-15T08:03:31.435Z,2.50
2019-03-15T08:08:35.959Z,2.40
2019-03-15T08:13:40.514Z,2.67
2019-03-15T08:18:45.541Z,1.70
2019-03-15T08:23:50.049Z,2.00
2019-03-15T08:28:54.595Z,2.30
2019-03-15T08:33:59.180Z,2.50
2019-03-15T08:39:04.529Z,2.10
2019-03-15T08:44:09.037Z,2.20
2019-03-15T08:49:14.438Z,2.27
2019-03-15T08:54:18.993Z,2.10
2019-03-15T08:59:24.266Z,1.80
2019-03-15T09:04:29.893Z,2.33
2019-03-15T09:09:36.010Z,1.70
2019-03-15T09:14:40.545Z,1.60
2019-03-15T09:19:44.924Z,1.92
2019-03-15T09:24:49.426Z,2.10
2019-03-15T09:29:54.223Z,1.90
2019-03-15T09:34:58.936Z,1.70
2019-03-15T09:40:04.049Z,1.73
2019-03-15T09:45:10.446Z,1.60
2019-03-15T09:50:26.404Z,1.73
2019-03-15T09:55:32.314Z,1.37
2019-03-15T10:00:28.102Z,1.13
2019-03-15T10:05:33.442Z,0.80
2019-03-15T10:10:38.610Z,1.10
2019-03-15T10:15:43.130Z,0.93
2019-03-15T10:20:48.612Z,0.97
2019-03-15T10:25:52.870Z,1.10
2019-03-15T10:30:57.931Z,0.75
2019-03-15T10:36:03.213Z,0.70
2019-03-15T10:41:08.306Z,0.93
2019-03-15T10:46:12.885Z,1.20
2019-03-15T10:51:17.722Z,0.80
2019-03-15T10:56:22.264Z,0.80
2019-03-15T11:01:28.146Z,0.60
2019-03-15T11:06:32.672Z,0.80
2019-03-15T11:11:38.927Z,0.50
2019-03-15T11:16:43.183Z,0.50
2019-03-15T11:21:48.518Z,0.68
2019-03-15T11:26:53.987Z,0.70
2019-03-15T11:31:59.990Z,0.70
2019-03-15T11:37:04.563Z,0.70
2019-03-15T11:42:10.470Z,0.77
2019-03-15T11:47:14.723Z,0.62
2019-03-15T11:52:20.366Z,1.00
2019-03-15T11:57:24.778Z,0.80
2019-03-15T12:02:32.182Z,0.67
2019-03-15T12:07:36.413Z,0.50
2019-03-15T12:12:41.446Z,0.60
2019-03-15T12:17:45.959Z,0.60
2019-03-15T12:22:50.190Z,0.60
2019-03-15T12:27:54.781Z,0.60
2019-03-15T12:33:01.128Z,0.60
2019-03-15T12:38:05.342Z,0.60
2019-03-15T12:43:10.996Z,0.53
2019-03-15T12:48:15.222Z,0.72
2019-03-15T12:53:20.791Z,0.73
2019-03-15T12:58:25.029Z,0.68
2019-03-15T13:03:32.082Z,0.60
2019-03-15T13:08:36.310Z,0.60
2019-03-15T13:13:42.026Z,0.70
2019-03-15T13:18:46.538Z,0.67
2019-03-15T13:23:52.347Z,0.60
2019-03-15T13:28:56.561Z,0.53
2019-03-15T13:34:01.666Z,0.60
2019-03-15T13:39:06.611Z,0.50
2019-03-15T13:44:10.955Z,0.60
2019-03-15T13:49:15.446Z,0.60
2019-03-15T13:54:19.818Z,0.50
2019-03-15T13:59:24.067Z,0.50
2019-03-15T14:04:29.612Z,0.60
2019-03-15T14:09:34.113Z,0.90
2019-03-15T14:14:39.441Z,0.50
2019-03-15T14:19:43.668Z,0.70
2019-03-15T14:24:48.995Z,0.60
2019-03-15T14:29:53.508Z,0.70
2019-03-15T14:34:58.710Z,0.60
2019-03-15T14:40:02.938Z,0.70
2019-03-15T14:45:08.191Z,0.72
2019-03-15T14:50:12.495Z,0.50
2019-03-15T14:55:17.274Z,0.60
2019-03-15T15:00:21.514Z,0.60
2019-03-15T15:05:26.250Z,0.90
2019-03-15T15:10:30.481Z,0.60
2019-03-15T15:15:35.857Z,0.70
2019-03-15T15:20:40.098Z,0.60
2019-03-15T15:25:44.487Z,0.50
2019-03-15T15:30:48.972Z,0.60
2019-03-15T15:41:07.499Z,0.50
2019-03-15T15:46:12.984Z,0.77
2019-03-15T15:51:17.225Z,0.85
2019-03-15T15:56:22.201Z,0.70
2019-03-15T16:01:26.701Z,0.60
2019-03-15T16:06:31.922Z,0.50
2019-03-15T16:11:36.158Z,0.50
2019-03-15T16:16:41.287Z,0.75
2019-03-15T16:21:45.523Z,0.50
2019-03-15T16:26:50.693Z,0.57
2019-03-15T16:31:54.985Z,0.60
2019-03-15T16:36:59.287Z,0.50
2019-03-15T16:42:03.914Z,0.60
2019-03-15T16:47:08.918Z,0.82
2019-03-15T16:52:13.473Z,0.70
2019-03-15T16:57:18.823Z,0.50
2019-03-15T17:02:23.324Z,0.50
2019-03-15T17:07:28.443Z,0.70
2019-03-15T17:12:32.668Z,0.70
2019-03-15T17:17:37.219Z,0.80
2019-03-15T17:22:41.452Z,0.72
2019-03-15T17:27:46.334Z,0.82
2019-03-15T17:32:50.819Z,0.50
2019-03-15T17:37:55.382Z,0.60
2019-03-15T17:42:59.617Z,0.60
2019-03-15T17:48:05.134Z,0.50
2019-03-15T17:53:09.347Z,0.50
2019-03-15T17:58:14.682Z,0.60
2019-03-15T18:03:21.765Z,0.60
2019-03-15T18:08:27.614Z,0.53
2019-03-15T18:13:32.091Z,0.50
2019-03-15T18:18:37.639Z,0.70
2019-03-15T18:23:42.125Z,0.60
2019-03-15T18:28:47.736Z,0.80
2019-03-15T18:33:52.275Z,1.00
2019-03-15T18:38:59.198Z,0.80
2019-03-15T18:44:03.419Z,0.75
2019-03-15T18:49:09.382Z,0.90
2019-03-15T18:54:17.716Z,0.60
2019-03-15T18:59:20.717Z,0.80
2019-03-15T19:04:25.472Z,0.80
2019-03-15T19:09:31.454Z,0.82
2019-03-15T19:14:35.945Z,0.77
2019-03-15T19:19:41.045Z,0.67
2019-03-15T19:24:45.450Z,0.70
2019-03-15T19:29:54.036Z,0.55
2019-03-15T19:34:56.510Z,1.03
2019-03-15T19:40:00.734Z,0.70
2019-03-15T19:45:05.290Z,0.90
2019-03-15T19:50:10.972Z,0.80
2019-03-15T19:55:15.553Z,0.70
2019-03-15T20:00:20.670Z,0.80
2019-03-15T20:05:25.226Z,0.80
2019-03-15T20:10:30.233Z,0.80
2019-03-15T20:15:34.531Z,0.70
2019-03-15T20:20:39.435Z,0.60
2019-03-15T20:25:43.937Z,0.60
2019-03-15T20:30:52.167Z,1.00
2019-03-15T20:35:54.910Z,0.90
2019-03-15T20:40:59.445Z,0.70
2019-03-15T20:46:03.938Z,0.90
2019-03-15T20:51:09.421Z,0.60
2019-03-15T20:56:13.933Z,0.70
2019-03-15T21:01:18.945Z,0.72
2019-03-15T21:06:23.491Z,0.80
2019-03-15T21:11:28.330Z,0.90
2019-03-15T21:16:32.565Z,0.60
2019-03-15T21:21:37.082Z,0.90
2019-03-15T21:26:41.571Z,0.63
2019-03-15T21:31:47.412Z,0.70
2019-03-15T21:36:51.902Z,0.60
2019-03-15T21:41:59.248Z,0.70
2019-03-15T21:47:03.759Z,0.50
2019-03-15T21:52:08.330Z,0.63
2019-03-15T21:57:12.862Z,0.80
2019-03-15T22:02:17.829Z,0.60
2019-03-15T22:07:22.340Z,0.70
2019-03-15T22:12:27.414Z,0.63
2019-03-15T22:17:31.654Z,0.60
2019-03-15T22:22:36.190Z,0.72
2019-03-15T22:27:41.038Z,0.60
2019-03-15T22:32:45.591Z,0.60
2019-03-15T22:37:49.855Z,0.60
2019-03-15T22:42:54.957Z,0.70
2019-03-15T22:47:59.463Z,0.67
2019-03-15T22:53:04.458Z,0.50
2019-03-15T22:58:08.978Z,0.80
2019-03-15T23:03:13.958Z,0.73
2019-03-15T23:08:18.454Z,0.77
2019-03-15T23:13:23.346Z,0.87
2019-03-15T23:18:27.850Z,0.73
2019-03-15T23:23:32.930Z,0.80
2019-03-15T23:28:37.429Z,0.90
2019-03-15T23:33:42.612Z,1.00
2019-03-15T23:38:46.824Z,0.97
2019-03-15T23:43:52.244Z,1.10
2019-03-15T23:48:56.810Z,1.00
2019-03-15T23:54:01.099Z,0.90
2019-03-15T23:59:05.625Z,1.10
